Time;durP1;ratioP1;P1;durP2;ratioP2;P2;SDS_P1;SDS_P2;PMS_P1;PMS_P2;Temp;Humidity;BMP_temperature;BMP_pressure;BME280_temperature;BME280_humidity;BME280_pressure;Samples;Min_cycle;Max_cycle;Signal;HPM_P1;HPM_P2
2023/06/27 00:00:17;;;;;;;6.85;4.72;;;;;;;;;;5013844;28;20216;-44
2023/06/27 00:03:05;;;;;;;8.52;4.95;;;;;;;;;;4999485;28;20197;-44
2023/06/27 00:05:35;;;;;;;8.25;4.75;;;;;;;;;;5013811;28;20271;-45
2023/06/27 00:08:02;;;;;;;7.60;4.47;;;;;;;;;;5013767;28;20207;-44
2023/06/27 00:10:29;;;;;;;8.32;4.72;;;;;;;;;;5013546;28;20665;-45
2023/06/27 00:12:56;;;;;;;8.52;5.40;;;;;;;;;;5013838;28;20220;-44
2023/06/27 00:15:23;;;;;;;10.80;4.82;;;;;;;;;;5013463;28;20209;-46
2023/06/27 00:17:53;;;;;;;13.90;5.22;;;;;;;;;;5013456;28;20209;-44
2023/06/27 00:20:20;;;;;;;9.00;5.13;;;;;;;;;;5013892;28;20205;-44
2023/06/27 00:22:48;;;;;;;7.38;5.07;;;;;;;;;;5013385;28;20197;-45
2023/06/27 00:25:15;;;;;;;16.10;5.80;;;;;;;;;;5013323;28;20320;-44
2023/06/27 00:27:42;;;;;;;8.93;5.20;;;;;;;;;;5013519;28;20217;-47
2023/06/27 00:30:09;;;;;;;8.70;5.20;;;;;;;;;;5013260;28;20205;-46
2023/06/27 00:32:37;;;;;;;8.75;5.38;;;;;;;;;;5013303;28;20208;-44
2023/06/27 00:35:05;;;;;;;13.35;5.25;;;;;;;;;;4995634;28;20755;-44
2023/06/27 00:37:33;;;;;;;11.85;5.82;;;;;;;;;;5013806;28;20216;-45
2023/06/27 00:40:02;;;;;;;6.15;4.63;;;;;;;;;;4996099;28;20213;-45
2023/06/27 00:42:29;;;;;;;8.77;5.30;;;;;;;;;;4995984;28;20216;-45
2023/06/27 00:44:56;;;;;;;6.65;4.47;;;;;;;;;;4997295;28;20225;-44
2023/06/27 00:47:24;;;;;;;11.43;5.32;;;;;;;;;;4999825;28;20205;-44
2023/06/27 00:49:51;;;;;;;6.32;4.70;;;;;;;;;;4983876;28;20200;-45
2023/06/27 00:52:19;;;;;;;7.75;4.60;;;;;;;;;;5017479;28;20212;-45
2023/06/27 00:54:46;;;;;;;10.77;5.43;;;;;;;;;;4999762;28;20256;-45
2023/06/27 00:57:13;;;;;;;8.98;5.43;;;;;;;;;;5017087;28;20217;-46
2023/06/27 00:59:43;;;;;;;10.35;5.13;;;;;;;;;;4983965;28;20205;-44
2023/06/27 01:02:12;;;;;;;9.35;4.72;;;;;;;;;;5017480;28;20204;-45
2023/06/27 01:04:39;;;;;;;9.98;5.45;;;;;;;;;;4999276;28;20240;-45
2023/06/27 01:07:15;;;;;;;10.82;5.70;;;;;;;;;;4999794;28;20205;-44
2023/06/27 01:09:51;;;;;;;10.45;5.63;;;;;;;;;;5017056;28;20279;-44
2023/06/27 01:12:29;;;;;;;8.70;5.70;;;;;;;;;;4999289;28;20205;-44
2023/06/27 01:14:57;;;;;;;7.15;5.28;;;;;;;;;;4999287;28;20650;-44
2023/06/27 01:17:25;;;;;;;12.20;5.57;;;;;;;;;;4999481;28;20206;-44
2023/06/27 01:19:52;;;;;;;10.32;5.68;;;;;;;;;;4983178;28;20237;-45
2023/06/27 01:22:33;;;;;;;9.80;5.20;;;;;;;;;;4983492;28;20206;-45
2023/06/27 01:25:02;;;;;;;9.18;5.18;;;;;;;;;;4983033;28;20228;-46
2023/06/27 01:27:30;;;;;;;8.77;5.35;;;;;;;;;;5016680;28;20201;-46
2023/06/27 01:29:57;;;;;;;10.02;5.70;;;;;;;;;;4999065;28;20213;-48
2023/06/27 01:32:33;;;;;;;9.60;5.20;;;;;;;;;;5016199;28;20260;-45
2023/06/27 01:35:04;;;;;;;13.45;5.60;;;;;;;;;;4998539;28;20216;-45
2023/06/27 01:37:36;;;;;;;9.75;5.90;;;;;;;;;;4998571;28;20563;-45
2023/06/27 01:40:08;;;;;;;12.15;5.05;;;;;;;;;;5016157;28;20210;-46
2023/06/27 01:42:53;;;;;;;11.45;5.55;;;;;;;;;;5016141;28;20205;-45
2023/06/27 01:45:22;;;;;;;11.23;5.53;;;;;;;;;;4998377;28;20716;-45
2023/06/27 01:47:49;;;;;;;8.27;5.40;;;;;;;;;;4982307;28;20202;-45
2023/06/27 01:50:16;;;;;;;8.52;5.60;;;;;;;;;;4998509;28;20206;-46
2023/06/27 01:52:43;;;;;;;11.80;5.57;;;;;;;;;;5015946;28;20212;-47
2023/06/27 01:55:10;;;;;;;8.65;4.85;;;;;;;;;;5015315;28;20292;-46
2023/06/27 01:57:38;;;;;;;13.43;4.90;;;;;;;;;;4998122;28;20218;-48
2023/06/27 02:00:06;;;;;;;8.65;5.15;;;;;;;;;;4998016;28;20232;-46
2023/06/27 02:02:44;;;;;;;15.50;5.93;;;;;;;;;;5015803;28;20209;-46
2023/06/27 02:05:11;;;;;;;6.90;4.70;;;;;;;;;;4997937;28;20693;-49
2023/06/27 02:07:38;;;;;;;9.52;5.18;;;;;;;;;;4998013;28;20209;-47
2023/06/27 02:10:09;;;;;;;10.93;5.10;;;;;;;;;;5015421;28;20219;-45
2023/06/27 02:12:39;;;;;;;15.70;5.63;;;;;;;;;;5015360;28;20557;-47
2023/06/27 02:15:06;;;;;;;13.93;6.80;;;;;;;;;;4998025;28;20205;-46
2023/06/27 02:17:34;;;;;;;11.00;6.30;;;;;;;;;;4998152;28;20202;-46
2023/06/27 02:20:01;;;;;;;8.98;5.22;;;;;;;;;;5015128;28;20635;-45
2023/06/27 02:22:28;;;;;;;13.38;6.15;;;;;;;;;;4997760;28;20213;-46
2023/06/27 02:24:55;;;;;;;10.75;5.97;;;;;;;;;;5015068;28;20213;-49
2023/06/27 02:27:23;;;;;;;13.50;6.30;;;;;;;;;;5015436;28;20205;-46
2023/06/27 02:29:50;;;;;;;10.05;5.22;;;;;;;;;;5015234;28;20210;-46
2023/06/27 02:32:17;;;;;;;9.23;5.45;;;;;;;;;;4997562;28;20210;-48
2023/06/27 02:34:44;;;;;;;9.07;5.53;;;;;;;;;;5015038;28;20209;-47
2023/06/27 02:37:12;;;;;;;12.48;5.07;;;;;;;;;;5014642;28;20237;-49
2023/06/27 02:39:39;;;;;;;8.98;5.28;;;;;;;;;;5015276;28;20611;-46
2023/06/27 02:42:07;;;;;;;11.05;5.15;;;;;;;;;;4997671;28;20216;-46
2023/06/27 02:44:34;;;;;;;9.82;4.97;;;;;;;;;;4997480;28;20228;-47
2023/06/27 02:47:01;;;;;;;8.32;5.40;;;;;;;;;;5014794;28;20225;-45
2023/06/27 02:49:29;;;;;;;13.07;5.65;;;;;;;;;;5014867;28;20235;-44
2023/06/27 02:51:56;;;;;;;9.20;5.18;;;;;;;;;;4997237;28;20212;-44
2023/06/27 02:54:23;;;;;;;8.43;5.70;;;;;;;;;;4997260;28;20198;-46
2023/06/27 02:56:52;;;;;;;10.35;5.35;;;;;;;;;;4997373;28;20209;-46
2023/06/27 02:59:19;;;;;;;7.80;5.38;;;;;;;;;;4997381;28;20201;-45
2023/06/27 03:01:47;;;;;;;12.32;6.20;;;;;;;;;;4997479;28;20209;-46
2023/06/27 03:04:19;;;;;;;11.15;5.65;;;;;;;;;;4997064;28;20212;-46
2023/06/27 03:06:49;;;;;;;11.77;5.85;;;;;;;;;;5014103;28;20352;-45
2023/06/27 03:09:18;;;;;;;8.57;6.22;;;;;;;;;;4981382;28;20197;-45
2023/06/27 03:11:46;;;;;;;8.95;5.78;;;;;;;;;;4997277;28;20599;-45
2023/06/27 03:14:18;;;;;;;12.02;6.25;;;;;;;;;;4997070;28;20217;-45
2023/06/27 03:16:50;;;;;;;12.88;5.85;;;;;;;;;;4997289;28;20228;-47
2023/06/27 03:19:17;;;;;;;11.75;6.57;;;;;;;;;;4997128;28;20639;-46
2023/06/27 03:22:00;;;;;;;9.70;6.10;;;;;;;;;;4996914;28;20212;-48
2023/06/27 03:24:30;;;;;;;11.52;5.45;;;;;;;;;;5014273;28;20204;-49
2023/06/27 03:26:57;;;;;;;10.25;5.85;;;;;;;;;;4996828;28;20239;-47
2023/06/27 03:29:24;;;;;;;11.25;6.25;;;;;;;;;;5014132;28;20754;-47
2023/06/27 03:31:52;;;;;;;15.55;5.80;;;;;;;;;;4996949;28;20201;-46
2023/06/27 03:34:19;;;;;;;10.40;6.30;;;;;;;;;;4996763;28;20666;-47
2023/06/27 03:36:47;;;;;;;9.85;6.25;;;;;;;;;;4996665;28;20571;-48
2023/06/27 03:39:14;;;;;;;9.65;5.78;;;;;;;;;;4996867;28;20236;-47
2023/06/27 03:41:41;;;;;;;11.50;6.22;;;;;;;;;;5006889;28;20202;-47
2023/06/27 03:44:08;;;;;;;8.88;5.85;;;;;;;;;;4986028;28;20212;-46
2023/06/27 03:46:37;;;;;;;10.00;6.32;;;;;;;;;;4995196;28;20232;-49
2023/06/27 03:49:04;;;;;;;13.35;6.57;;;;;;;;;;5014157;28;20205;-47
2023/06/27 03:51:33;;;;;;;9.73;6.43;;;;;;;;;;4996710;28;20206;-45
2023/06/27 03:54:06;;;;;;;9.50;6.22;;;;;;;;;;4983079;28;20663;-47
2023/06/27 03:56:33;;;;;;;9.70;6.28;;;;;;;;;;4977012;28;20241;-47
2023/06/27 03:59:01;;;;;;;13.98;6.45;;;;;;;;;;4994047;28;20194;-54
2023/06/27 04:01:28;;;;;;;11.43;6.18;;;;;;;;;;4994186;28;20209;-46
2023/06/27 04:03:55;;;;;;;10.90;5.88;;;;;;;;;;4976697;28;20253;-48
2023/06/27 04:06:22;;;;;;;10.50;5.55;;;;;;;;;;4976491;28;20268;-45
2023/06/27 04:08:49;;;;;;;8.95;5.80;;;;;;;;;;4993943;28;20214;-46
2023/06/27 04:11:17;;;;;;;12.02;5.85;;;;;;;;;;4976995;28;20206;-47
2023/06/27 04:13:44;;;;;;;9.52;5.88;;;;;;;;;;4974135;28;20706;-46
2023/06/27 04:16:12;;;;;;;7.80;5.75;;;;;;;;;;4979804;28;20226;-46
2023/06/27 04:18:39;;;;;;;10.63;6.30;;;;;;;;;;4992913;28;20257;-46
2023/06/27 04:21:06;;;;;;;13.57;6.32;;;;;;;;;;4993400;28;20594;-45
2023/06/27 04:23:34;;;;;;;11.00;6.57;;;;;;;;;;5004611;28;20284;-44
2023/06/27 04:26:08;;;;;;;9.43;5.53;;;;;;;;;;4987738;28;20229;-44
2023/06/27 04:28:36;;;;;;;9.68;6.57;;;;;;;;;;4975490;28;20240;-45
2023/06/27 04:31:04;;;;;;;11.63;6.10;;;;;;;;;;4992945;28;20263;-44
2023/06/27 04:33:31;;;;;;;10.90;6.55;;;;;;;;;;5012933;28;20229;-44
2023/06/27 04:36:03;;;;;;;13.63;6.43;;;;;;;;;;5013129;28;20241;-45
2023/06/27 04:38:30;;;;;;;9.60;5.90;;;;;;;;;;5012069;28;20229;-44
2023/06/27 04:40:57;;;;;;;10.73;6.32;;;;;;;;;;5011698;28;20694;-45
2023/06/27 04:43:26;;;;;;;7.95;5.95;;;;;;;;;;4992092;28;20689;-46
2023/06/27 04:45:54;;;;;;;9.60;6.32;;;;;;;;;;5011555;28;20252;-44
2023/06/27 04:48:21;;;;;;;8.18;5.97;;;;;;;;;;4993100;28;20226;-45
2023/06/27 04:50:48;;;;;;;9.27;6.63;;;;;;;;;;4993009;28;20711;-45
2023/06/27 04:53:19;;;;;;;10.23;6.80;;;;;;;;;;4991695;28;20233;-45
2023/06/27 04:55:51;;;;;;;8.38;5.70;;;;;;;;;;4991245;28;20234;-48
2023/06/27 04:58:19;;;;;;;10.50;6.35;;;;;;;;;;4990698;28;20222;-47
2023/06/27 05:00:51;;;;;;;10.40;6.22;;;;;;;;;;5009390;28;20229;-47
2023/06/27 05:03:20;;;;;;;9.05;6.38;;;;;;;;;;5010729;28;20288;-48
2023/06/27 05:05:49;;;;;;;10.23;6.30;;;;;;;;;;5010803;28;20240;-46
2023/06/27 05:08:16;;;;;;;9.13;6.25;;;;;;;;;;5010805;28;20233;-44
2023/06/27 05:10:44;;;;;;;11.15;6.70;;;;;;;;;;5012557;28;20898;-44
2023/06/27 05:13:15;;;;;;;9.15;6.30;;;;;;;;;;5011813;28;20264;-45
2023/06/27 05:15:43;;;;;;;7.45;5.82;;;;;;;;;;5011677;28;20587;-46
2023/06/27 05:18:12;;;;;;;12.00;7.28;;;;;;;;;;5010980;28;20226;-44
2023/06/27 05:20:40;;;;;;;10.93;6.70;;;;;;;;;;5001452;28;20202;-44
2023/06/27 05:23:07;;;;;;;9.15;6.10;;;;;;;;;;4994514;28;20357;-44
2023/06/27 05:25:34;;;;;;;11.05;6.45;;;;;;;;;;4993318;28;20212;-44
2023/06/27 05:28:02;;;;;;;10.63;6.53;;;;;;;;;;4994824;28;20245;-45
2023/06/27 05:30:30;;;;;;;10.30;6.80;;;;;;;;;;5002757;28;20236;-44
2023/06/27 05:33:03;;;;;;;9.93;6.75;;;;;;;;;;5005506;28;20225;-45
2023/06/27 05:35:31;;;;;;;9.70;6.63;;;;;;;;;;5005348;28;20221;-45
2023/06/27 05:37:58;;;;;;;10.25;6.63;;;;;;;;;;5005399;28;20190;-45
2023/06/27 05:40:27;;;;;;;18.40;6.53;;;;;;;;;;5005958;28;20275;-48
2023/06/27 05:42:54;;;;;;;9.48;6.40;;;;;;;;;;5007144;28;20523;-45
2023/06/27 05:45:21;;;;;;;11.57;7.30;;;;;;;;;;5005495;28;20531;-44
2023/06/27 05:47:48;;;;;;;11.25;7.07;;;;;;;;;;5005614;28;20232;-45
2023/06/27 05:50:16;;;;;;;16.38;7.28;;;;;;;;;;5006910;28;20549;-45
2023/06/27 05:52:42;;;;;;;9.88;6.40;;;;;;;;;;4987876;28;20236;-44
2023/06/27 05:55:10;;;;;;;11.20;6.90;;;;;;;;;;5004801;28;20661;-45
2023/06/27 05:57:37;;;;;;;12.00;6.40;;;;;;;;;;5007033;28;20201;-44
2023/06/27 06:00:10;;;;;;;10.02;6.30;;;;;;;;;;5004067;28;20194;-50
2023/06/27 06:02:44;;;;;;;9.07;5.93;;;;;;;;;;4987573;28;20229;-44
2023/06/27 06:05:12;;;;;;;8.90;5.75;;;;;;;;;;5004596;28;20564;-49
2023/06/27 06:07:43;;;;;;;8.65;5.20;;;;;;;;;;5006271;28;20308;-45
2023/06/27 06:10:11;;;;;;;7.45;5.68;;;;;;;;;;5006140;28;20201;-46
2023/06/27 06:12:39;;;;;;;9.48;5.65;;;;;;;;;;5004708;28;20592;-46
2023/06/27 06:15:06;;;;;;;13.82;5.57;;;;;;;;;;5002692;28;20257;-43
2023/06/27 06:17:33;;;;;;;8.23;5.13;;;;;;;;;;4996212;28;20206;-44
2023/06/27 06:20:01;;;;;;;8.38;4.88;;;;;;;;;;4995889;28;20218;-50
2023/06/27 06:22:28;;;;;;;7.00;5.32;;;;;;;;;;4996577;28;20206;-43
2023/06/27 06:24:56;;;;;;;8.40;4.75;;;;;;;;;;4997635;28;20198;-45
2023/06/27 06:27:22;;;;;;;9.27;5.20;;;;;;;;;;5005500;28;20697;-48
2023/06/27 06:29:50;;;;;;;7.88;4.63;;;;;;;;;;4953772;28;20198;-48
2023/06/27 06:32:17;;;;;;;7.60;5.22;;;;;;;;;;5006031;28;20221;-49
2023/06/27 06:34:44;;;;;;;8.07;5.15;;;;;;;;;;5004233;28;20272;-46
2023/06/27 06:37:13;;;;;;;7.20;5.13;;;;;;;;;;5004363;28;20662;-46
2023/06/27 06:39:41;;;;;;;7.53;5.00;;;;;;;;;;5004368;28;20203;-45
2023/06/27 06:42:10;;;;;;;10.00;5.28;;;;;;;;;;5004741;28;20201;-45
2023/06/27 06:44:38;;;;;;;6.25;4.18;;;;;;;;;;4988595;28;20201;-44
2023/06/27 06:47:05;;;;;;;6.30;4.25;;;;;;;;;;5004589;28;20214;-45
2023/06/27 06:49:32;;;;;;;5.28;4.18;;;;;;;;;;5011847;28;20254;-45
2023/06/27 06:51:59;;;;;;;5.97;4.75;;;;;;;;;;5013464;28;20666;-44
2023/06/27 06:54:26;;;;;;;8.27;4.70;;;;;;;;;;5014355;28;20204;-46
2023/06/27 06:56:54;;;;;;;9.07;4.65;;;;;;;;;;5013711;28;20557;-45
2023/06/27 06:59:21;;;;;;;4.90;3.95;;;;;;;;;;5014777;28;20209;-44
2023/06/27 07:01:48;;;;;;;7.35;4.38;;;;;;;;;;5014802;28;20604;-47
2023/06/27 07:04:15;;;;;;;8.38;5.05;;;;;;;;;;5015131;28;20240;-46
2023/06/27 07:06:42;;;;;;;6.18;4.47;;;;;;;;;;5014468;28;20304;-43
2023/06/27 07:09:10;;;;;;;7.32;4.70;;;;;;;;;;5014813;28;20202;-45
2023/06/27 07:11:37;;;;;;;6.00;4.53;;;;;;;;;;5014690;28;20201;-44
2023/06/27 07:14:04;;;;;;;6.82;4.57;;;;;;;;;;5014764;28;20236;-44
2023/06/27 07:16:31;;;;;;;6.00;4.43;;;;;;;;;;5013827;28;20209;-44
2023/06/27 07:18:58;;;;;;;5.97;4.68;;;;;;;;;;4989639;28;20194;-45
2023/06/27 07:21:25;;;;;;;6.32;5.15;;;;;;;;;;5014904;28;20288;-44
2023/06/27 07:23:53;;;;;;;6.32;4.72;;;;;;;;;;5014602;28;20228;-44
2023/06/27 07:26:20;;;;;;;6.10;4.65;;;;;;;;;;5014373;28;20653;-45
2023/06/27 07:28:47;;;;;;;5.75;4.38;;;;;;;;;;5014339;28;20618;-44
2023/06/27 07:31:14;;;;;;;5.95;4.18;;;;;;;;;;5014563;28;20209;-43
2023/06/27 07:33:41;;;;;;;6.45;4.30;;;;;;;;;;4997334;28;20233;-45
2023/06/27 07:36:08;;;;;;;5.13;4.38;;;;;;;;;;5013966;28;20268;-45
2023/06/27 07:38:36;;;;;;;7.82;4.43;;;;;;;;;;5014196;28;20205;-46
2023/06/27 07:41:03;;;;;;;6.55;4.40;;;;;;;;;;5014224;28;20244;-47
2023/06/27 07:43:30;;;;;;;6.28;4.07;;;;;;;;;;5014356;28;20202;-44
2023/06/27 07:45:57;;;;;;;4.45;3.78;;;;;;;;;;5014350;28;20201;-45
2023/06/27 07:48:24;;;;;;;5.35;3.80;;;;;;;;;;5014021;28;20225;-45
2023/06/27 07:50:51;;;;;;;5.78;4.10;;;;;;;;;;5013979;28;20678;-45
2023/06/27 07:53:18;;;;;;;5.63;3.83;;;;;;;;;;5013631;28;20212;-43
2023/06/27 07:55:45;;;;;;;5.40;3.58;;;;;;;;;;5013892;28;20229;-46
2023/06/27 07:58:13;;;;;;;12.52;4.05;;;;;;;;;;5014142;28;20201;-45
2023/06/27 08:00:40;;;;;;;5.78;3.90;;;;;;;;;;5013917;28;20211;-44
2023/06/27 08:03:08;;;;;;;5.13;3.83;;;;;;;;;;5013766;28;20662;-43
2023/06/27 08:05:38;;;;;;;5.22;3.83;;;;;;;;;;5013847;28;20202;-43
2023/06/27 08:08:07;;;;;;;5.05;3.92;;;;;;;;;;5013817;28;20225;-43
2023/06/27 08:10:34;;;;;;;6.97;3.60;;;;;;;;;;5013726;28;20201;-48
2023/06/27 08:13:02;;;;;;;6.20;4.70;;;;;;;;;;5013737;28;20220;-44
2023/06/27 08:15:29;;;;;;;9.88;4.22;;;;;;;;;;5007411;28;20190;-45
2023/06/27 08:17:57;;;;;;;5.32;4.25;;;;;;;;;;5003402;28;20218;-45
2023/06/27 08:20:24;;;;;;;8.60;4.40;;;;;;;;;;5004423;28;20541;-44
2023/06/27 08:22:51;;;;;;;6.63;4.65;;;;;;;;;;5001199;28;20206;-43
2023/06/27 08:25:18;;;;;;;6.25;3.97;;;;;;;;;;5002524;28;20213;-45
2023/06/27 08:27:45;;;;;;;5.50;4.28;;;;;;;;;;5002767;28;20603;-45
2023/06/27 08:30:12;;;;;;;6.30;4.20;;;;;;;;;;5004367;28;20280;-45
2023/06/27 08:32:40;;;;;;;4.63;3.65;;;;;;;;;;5002875;28;20713;-47
2023/06/27 08:35:07;;;;;;;5.22;3.97;;;;;;;;;;5002404;28;20193;-44
2023/06/27 08:37:34;;;;;;;7.15;3.60;;;;;;;;;;5004137;28;20198;-44
2023/06/27 08:40:01;;;;;;;19.95;4.10;;;;;;;;;;5003234;28;20221;-44
2023/06/27 08:42:32;;;;;;;4.97;3.67;;;;;;;;;;5007710;28;20276;-45
2023/06/27 08:44:59;;;;;;;4.47;3.30;;;;;;;;;;5013360;28;20228;-45
2023/06/27 08:47:29;;;;;;;5.25;3.42;;;;;;;;;;5013342;28;20300;-45
2023/06/27 08:50:01;;;;;;;4.32;3.35;;;;;;;;;;5013301;28;20670;-44
2023/06/27 08:52:36;;;;;;;3.30;2.55;;;;;;;;;;5013662;28;20253;-43
2023/06/27 08:55:05;;;;;;;4.68;3.25;;;;;;;;;;5013341;28;20665;-43
2023/06/27 08:57:33;;;;;;;5.35;2.40;;;;;;;;;;4996047;28;20205;-45
2023/06/27 09:00:11;;;;;;;4.10;3.22;;;;;;;;;;4996030;28;20292;-43
2023/06/27 09:02:40;;;;;;;5.57;3.08;;;;;;;;;;5013249;28;20205;-43
2023/06/27 09:05:08;;;;;;;4.03;3.03;;;;;;;;;;5013661;28;20194;-43
2023/06/27 09:07:36;;;;;;;4.78;3.38;;;;;;;;;;5016710;28;20233;-45
2023/06/27 09:10:04;;;;;;;5.22;3.25;;;;;;;;;;5016735;28;20221;-46
2023/06/27 09:12:32;;;;;;;4.40;2.58;;;;;;;;;;5016658;28;20205;-43
2023/06/27 09:15:00;;;;;;;3.40;2.63;;;;;;;;;;4999347;28;20193;-43
2023/06/27 09:17:28;;;;;;;12.35;2.95;;;;;;;;;;5016485;28;20214;-44
2023/06/27 09:19:55;;;;;;;3.53;2.65;;;;;;;;;;5016470;28;20661;-45
2023/06/27 09:22:23;;;;;;;3.05;2.38;;;;;;;;;;5016997;28;20205;-43
2023/06/27 09:25:09;;;;;;;3.08;2.42;;;;;;;;;;5016047;28;20618;-44
2023/06/27 09:27:37;;;;;;;2.85;1.70;;;;;;;;;;5016501;28;20229;-43
2023/06/27 09:30:08;;;;;;;1.95;1.67;;;;;;;;;;5016893;28;20224;-42
2023/06/27 09:32:56;;;;;;;2.13;1.60;;;;;;;;;;5016584;28;20650;-43
2023/06/27 09:35:25;;;;;;;3.70;1.45;;;;;;;;;;5016688;28;20237;-43
2023/06/27 09:38:05;;;;;;;2.25;1.83;;;;;;;;;;5016589;28;20666;-44
2023/06/27 09:40:35;;;;;;;3.33;2.08;;;;;;;;;;5016905;28;20268;-42
2023/06/27 09:43:05;;;;;;;1.80;1.52;;;;;;;;;;5016345;28;20201;-43
2023/06/27 09:45:32;;;;;;;2.80;1.92;;;;;;;;;;5016374;28;20209;-43
2023/06/27 09:47:59;;;;;;;2.45;2.00;;;;;;;;;;5016565;28;20241;-44
2023/06/27 09:50:28;;;;;;;2.42;1.80;;;;;;;;;;5016198;28;20206;-44
2023/06/27 09:52:57;;;;;;;3.85;2.33;;;;;;;;;;5016431;28;20537;-44
2023/06/27 09:55:24;;;;;;;4.00;2.25;;;;;;;;;;5016328;28;20291;-44
2023/06/27 09:57:52;;;;;;;3.50;2.17;;;;;;;;;;5016166;28;20252;-45
2023/06/27 10:00:21;;;;;;;6.03;2.28;;;;;;;;;;5016107;28;20211;-45
2023/06/27 10:02:49;;;;;;;3.85;2.38;;;;;;;;;;5015979;28;20217;-43
2023/06/27 10:05:19;;;;;;;5.47;2.45;;;;;;;;;;5015455;28;20198;-44
2023/06/27 10:07:49;;;;;;;3.25;2.35;;;;;;;;;;5005547;28;20562;-43
2023/06/27 10:10:16;;;;;;;4.95;2.55;;;;;;;;;;5012907;28;20256;-45
2023/06/27 10:12:44;;;;;;;3.60;2.40;;;;;;;;;;5005512;28;20248;-46
2023/06/27 10:15:11;;;;;;;4.30;2.42;;;;;;;;;;5006320;28;20700;-45
2023/06/27 10:17:38;;;;;;;4.25;2.10;;;;;;;;;;4998766;28;20201;-44
2023/06/27 10:20:11;;;;;;;4.40;2.92;;;;;;;;;;4997479;28;20651;-45
2023/06/27 10:22:42;;;;;;;3.97;1.90;;;;;;;;;;4987951;28;20678;-44
2023/06/27 10:25:10;;;;;;;2.30;1.95;;;;;;;;;;4985224;28;20229;-45
2023/06/27 10:27:38;;;;;;;5.40;2.55;;;;;;;;;;5005971;28;20232;-46
2023/06/27 10:30:20;;;;;;;2.83;1.90;;;;;;;;;;5005823;28;20213;-45
2023/06/27 10:32:47;;;;;;;10.00;1.88;;;;;;;;;;5003663;28;20717;-44
2023/06/27 10:35:26;;;;;;;4.30;1.88;;;;;;;;;;5009954;28;20232;-45
2023/06/27 10:38:08;;;;;;;2.90;1.90;;;;;;;;;;5015637;28;20213;-45
2023/06/27 10:41:09;;;;;;;8.55;1.80;;;;;;;;;;5015273;28;20313;-44
2023/06/27 10:43:50;;;;;;;7.72;1.98;;;;;;;;;;5015638;28;20197;-45
2023/06/27 10:46:30;;;;;;;2.10;1.70;;;;;;;;;;5015209;28;20196;-45
2023/06/27 10:48:59;;;;;;;2.20;1.75;;;;;;;;;;5014981;28;20225;-45
2023/06/27 10:51:38;;;;;;;6.30;1.73;;;;;;;;;;5015379;28;20208;-45
2023/06/27 10:54:08;;;;;;;9.20;1.70;;;;;;;;;;5015033;28;20196;-46
2023/06/27 10:56:37;;;;;;;8.75;1.90;;;;;;;;;;5011977;28;20193;-44
2023/06/27 10:59:09;;;;;;;1.67;1.48;;;;;;;;;;5000398;28;20213;-44
2023/06/27 11:01:41;;;;;;;4.72;1.48;;;;;;;;;;4995426;28;20213;-46
2023/06/27 11:04:22;;;;;;;4.00;1.75;;;;;;;;;;5000703;28;20201;-47
2023/06/27 11:06:57;;;;;;;2.58;1.77;;;;;;;;;;5003066;28;20256;-46
2023/06/27 11:09:25;;;;;;;2.17;1.30;;;;;;;;;;4995077;28;20253;-45
2023/06/27 11:11:53;;;;;;;4.03;1.50;;;;;;;;;;4994586;28;20208;-45
2023/06/27 11:14:34;;;;;;;3.47;1.40;;;;;;;;;;4995088;28;20198;-46
2023/06/27 11:17:03;;;;;;;2.58;1.40;;;;;;;;;;4995187;28;20245;-45
2023/06/27 11:19:32;;;;;;;2.80;1.67;;;;;;;;;;4995240;28;20601;-45
2023/06/27 11:22:00;;;;;;;3.10;1.42;;;;;;;;;;4977989;28;20230;-45
2023/06/27 11:24:29;;;;;;;2.67;1.70;;;;;;;;;;4994862;28;20229;-45
2023/06/27 11:26:57;;;;;;;2.35;1.63;;;;;;;;;;4995190;28;20202;-47
2023/06/27 11:29:25;;;;;;;5.20;1.77;;;;;;;;;;4996579;28;20686;-49
2023/06/27 11:31:54;;;;;;;2.97;1.75;;;;;;;;;;5003390;28;20220;-47
2023/06/27 11:34:22;;;;;;;1.55;1.35;;;;;;;;;;5001323;28;20212;-46
2023/06/27 11:36:49;;;;;;;2.85;1.70;;;;;;;;;;5008069;28;20226;-49
2023/06/27 11:39:17;;;;;;;1.90;1.50;;;;;;;;;;4977441;28;20220;-54
2023/06/27 11:41:44;;;;;;;4.00;1.70;;;;;;;;;;4994562;28;20201;-51
2023/06/27 11:44:15;;;;;;;3.60;1.77;;;;;;;;;;4994740;28;20213;-50
2023/06/27 11:46:49;;;;;;;2.28;1.60;;;;;;;;;;4994145;28;20200;-51
2023/06/27 11:49:24;;;;;;;3.65;1.58;;;;;;;;;;4994350;28;20221;-50
2023/06/27 11:51:51;;;;;;;4.57;1.92;;;;;;;;;;4994487;28;20233;-49
2023/06/27 11:54:19;;;;;;;2.30;1.60;;;;;;;;;;5009811;28;20235;-49
2023/06/27 11:56:46;;;;;;;4.05;1.85;;;;;;;;;;5023104;28;20221;-54
2023/06/27 11:59:14;;;;;;;5.63;1.58;;;;;;;;;;4976103;28;20217;-54
2023/06/27 12:01:42;;;;;;;3.97;1.60;;;;;;;;;;4976511;28;20231;-52
2023/06/27 12:04:15;;;;;;;4.03;1.48;;;;;;;;;;4995299;28;20214;-57
2023/06/27 12:06:44;;;;;;;1.90;1.30;;;;;;;;;;4990417;28;20615;-54
2023/06/27 12:09:29;;;;;;;1.63;1.38;;;;;;;;;;5004243;28;20264;-54
2023/06/27 12:12:03;;;;;;;7.47;1.63;;;;;;;;;;4995551;28;20557;-48
2023/06/27 12:14:31;;;;;;;2.15;1.25;;;;;;;;;;4992823;28;20226;-51
2023/06/27 12:17:02;;;;;;;3.15;1.50;;;;;;;;;;4999756;28;20217;-51
2023/06/27 12:19:29;;;;;;;3.45;1.70;;;;;;;;;;5001057;28;20577;-53
2023/06/27 12:21:58;;;;;;;3.50;1.50;;;;;;;;;;5005511;28;20212;-50
2023/06/27 12:24:25;;;;;;;4.20;1.40;;;;;;;;;;5003526;28;20198;-53
2023/06/27 12:26:52;;;;;;;2.60;1.27;;;;;;;;;;5001033;28;20202;-49
2023/06/27 12:29:20;;;;;;;2.75;1.55;;;;;;;;;;5004625;28;20228;-53
2023/06/27 12:31:47;;;;;;;1.95;1.17;;;;;;;;;;5009921;28;20251;-49
2023/06/27 12:34:14;;;;;;;1.77;1.45;;;;;;;;;;5011378;28;20674;-50
2023/06/27 12:36:41;;;;;;;2.00;1.20;;;;;;;;;;5001072;28;20229;-51
2023/06/27 12:39:09;;;;;;;2.03;1.10;;;;;;;;;;4992711;28;20230;-51
2023/06/27 12:41:36;;;;;;;3.97;1.40;;;;;;;;;;4998965;28;20287;-51
2023/06/27 12:44:03;;;;;;;3.80;1.70;;;;;;;;;;4997096;28;20229;-50
2023/06/27 12:46:31;;;;;;;3.97;1.40;;;;;;;;;;4996183;28;20230;-49
2023/06/27 12:48:59;;;;;;;1.80;1.17;;;;;;;;;;5007577;28;20260;-51
2023/06/27 12:51:26;;;;;;;0.90;0.77;;;;;;;;;;5013235;28;20245;-50
2023/06/27 12:53:53;;;;;;;1.95;1.30;;;;;;;;;;5003850;28;20232;-51
2023/06/27 12:56:20;;;;;;;7.38;1.45;;;;;;;;;;5002331;28;20261;-53
2023/06/27 12:58:48;;;;;;;2.13;1.30;;;;;;;;;;5016141;28;20273;-50
2023/06/27 13:01:16;;;;;;;2.58;1.08;;;;;;;;;;5002787;28;20257;-50
2023/06/27 13:03:44;;;;;;;2.72;1.13;;;;;;;;;;4997166;28;20229;-51
2023/06/27 13:06:12;;;;;;;1.80;1.20;;;;;;;;;;5003477;28;20218;-50
2023/06/27 13:08:39;;;;;;;1.73;1.00;;;;;;;;;;5004417;28;20705;-52
2023/06/27 13:11:06;;;;;;;2.97;1.23;;;;;;;;;;5004691;28;20228;-51
2023/06/27 13:13:33;;;;;;;10.63;1.25;;;;;;;;;;5000830;28;20252;-51
2023/06/27 13:16:02;;;;;;;3.25;1.13;;;;;;;;;;4997587;28;20758;-49
2023/06/27 13:18:45;;;;;;;5.05;1.83;;;;;;;;;;5005068;28;20608;-50
2023/06/27 13:21:13;;;;;;;6.50;1.08;;;;;;;;;;5003055;28;20257;-52
2023/06/27 13:23:41;;;;;;;4.10;1.38;;;;;;;;;;5009234;28;20217;-50
2023/06/27 13:26:08;;;;;;;4.35;1.95;;;;;;;;;;5012747;28;20229;-51
2023/06/27 13:28:35;;;;;;;3.13;1.50;;;;;;;;;;5012978;28;20224;-50
2023/06/27 13:31:02;;;;;;;4.00;1.25;;;;;;;;;;5011097;28;20214;-51
2023/06/27 13:33:30;;;;;;;1.30;0.80;;;;;;;;;;5000822;28;20532;-51
2023/06/27 13:35:57;;;;;;;5.22;1.33;;;;;;;;;;4996377;28;20238;-48
2023/06/27 13:38:24;;;;;;;1.50;0.93;;;;;;;;;;4998780;28;20622;-48
2023/06/27 13:40:51;;;;;;;2.03;0.85;;;;;;;;;;4996324;28;20276;-49
2023/06/27 13:43:19;;;;;;;2.38;1.10;;;;;;;;;;4995669;28;20229;-48
2023/06/27 13:45:46;;;;;;;1.70;1.17;;;;;;;;;;4995552;28;20225;-49
2023/06/27 13:48:14;;;;;;;1.45;1.00;;;;;;;;;;4998398;28;20242;-50
2023/06/27 13:50:41;;;;;;;2.53;1.00;;;;;;;;;;4995831;28;20222;-49
2023/06/27 13:53:09;;;;;;;8.93;1.35;;;;;;;;;;5003071;28;20309;-52
2023/06/27 13:55:36;;;;;;;3.47;1.20;;;;;;;;;;4995954;28;20257;-54
2023/06/27 13:58:03;;;;;;;4.95;1.23;;;;;;;;;;4995958;28;20222;-55
2023/06/27 14:00:30;;;;;;;2.15;0.95;;;;;;;;;;4997253;28;20601;-54
2023/06/27 14:02:57;;;;;;;3.05;1.17;;;;;;;;;;5011155;28;20217;-53
2023/06/27 14:05:34;;;;;;;2.17;1.00;;;;;;;;;;4995729;28;20637;-50
2023/06/27 14:08:01;;;;;;;1.90;1.10;;;;;;;;;;4995887;28;20230;-53
2023/06/27 14:10:30;;;;;;;2.15;1.00;;;;;;;;;;4995892;28;20272;-50
2023/06/27 14:12:58;;;;;;;4.20;1.48;;;;;;;;;;4995795;28;20320;-55
2023/06/27 14:15:25;;;;;;;3.38;1.20;;;;;;;;;;4995655;28;20647;-53
2023/06/27 14:17:53;;;;;;;2.28;1.00;;;;;;;;;;4995484;28;20714;-49
2023/06/27 14:20:20;;;;;;;4.72;1.08;;;;;;;;;;4995201;28;20238;-55
2023/06/27 14:22:47;;;;;;;2.22;1.15;;;;;;;;;;4995436;28;20222;-52
2023/06/27 14:25:14;;;;;;;3.42;0.82;;;;;;;;;;4995762;28;20226;-50
2023/06/27 14:27:42;;;;;;;1.50;0.93;;;;;;;;;;4995486;28;20710;-50
2023/06/27 14:30:09;;;;;;;2.38;0.95;;;;;;;;;;4995629;28;20261;-51
2023/06/27 14:32:36;;;;;;;2.75;1.00;;;;;;;;;;4995121;28;20241;-52
2023/06/27 14:35:04;;;;;;;1.80;1.00;;;;;;;;;;4994833;28;20217;-49
2023/06/27 14:37:32;;;;;;;3.03;1.30;;;;;;;;;;4995490;28;20277;-49
2023/06/27 14:39:59;;;;;;;4.45;0.98;;;;;;;;;;4995652;28;20237;-48
2023/06/27 14:42:26;;;;;;;1.33;0.77;;;;;;;;;;5012114;28;20221;-50
2023/06/27 14:44:53;;;;;;;3.13;1.05;;;;;;;;;;5015024;28;20222;-50
2023/06/27 14:47:21;;;;;;;1.75;1.00;;;;;;;;;;5014466;28;20682;-53
2023/06/27 14:49:48;;;;;;;2.53;1.08;;;;;;;;;;5014567;28;20245;-49